createdAt,value
2022-10-20T00:02:12.392Z,100.00
2022-10-20T00:07:34.283Z,100.00
2022-10-20T00:12:56.142Z,100.00
2022-10-20T00:18:18.116Z,100.00
2022-10-20T00:23:40.031Z,100.00
2022-10-20T00:29:03.754Z,100.00
2022-10-20T00:34:25.635Z,100.00
2022-10-20T00:39:47.505Z,100.00
2022-10-20T00:45:14.091Z,100.00
2022-10-20T00:50:39.801Z,100.00
2022-10-20T00:56:02.003Z,100.00
2022-10-20T01:01:24.470Z,100.00
2022-10-20T01:06:46.389Z,100.00
2022-10-20T01:12:19.992Z,100.00
2022-10-20T01:18:12.150Z,100.00
2022-10-20T01:24:09.364Z,100.00
2022-10-20T01:29:40.081Z,100.00
2022-10-20T01:35:10.325Z,100.00
2022-10-20T01:40:43.607Z,100.00
2022-10-20T01:46:07.973Z,100.00
2022-10-20T01:51:30.075Z,100.00
2022-10-20T01:57:29.055Z,100.00
2022-10-20T02:03:21.200Z,100.00
2022-10-20T02:08:45.692Z,100.00
2022-10-20T02:14:11.687Z,100.00
2022-10-20T02:19:40.694Z,100.00
2022-10-20T02:25:03.246Z,100.00
2022-10-20T02:30:25.379Z,100.00
2022-10-20T02:35:55.990Z,100.00
2022-10-20T02:41:17.837Z,100.00
2022-10-20T02:46:39.700Z,100.00
2022-10-20T02:52:01.866Z,100.00
2022-10-20T02:57:23.726Z,100.00
2022-10-20T03:02:45.805Z,100.00
2022-10-20T03:08:07.935Z,100.00
2022-10-20T03:19:00.027Z,100.00
2022-10-20T03:24:25.473Z,100.00
2022-10-20T03:29:47.309Z,100.00
2022-10-20T03:35:09.638Z,100.00
2022-10-20T03:40:31.545Z,100.00
2022-10-20T03:46:05.058Z,100.00
2022-10-20T03:51:26.940Z,100.00
2022-10-20T03:56:48.784Z,100.00
2022-10-20T04:02:42.162Z,100.00
2022-10-20T04:08:04.240Z,100.00
2022-10-20T04:13:26.124Z,100.00
2022-10-20T04:18:48.533Z,100.00
2022-10-20T04:24:10.377Z,100.00
2022-10-20T04:29:32.310Z,100.00
2022-10-20T04:34:54.155Z,100.00
2022-10-20T04:40:16.106Z,100.00
2022-10-20T04:45:37.944Z,100.00
2022-10-20T04:51:11.053Z,100.00
2022-10-20T04:56:32.937Z,100.00
2022-10-20T05:01:54.802Z,100.00
2022-10-20T05:07:16.701Z,100.00
2022-10-20T05:12:38.855Z,100.00
2022-10-20T05:18:00.889Z,100.00
2022-10-20T05:23:22.743Z,100.00
2022-10-20T05:28:47.809Z,100.00
2022-10-20T05:34:11.033Z,100.00
2022-10-20T05:39:32.909Z,100.00
2022-10-20T05:44:54.741Z,84.75
2022-10-20T05:50:16.705Z,67.54
2022-10-20T05:55:38.556Z,57.76
2022-10-20T06:01:08.489Z,49.51
2022-10-20T06:06:31.170Z,45.34
2022-10-20T06:17:49.138Z,37.92
2022-10-20T06:23:11.069Z,38.82
2022-10-20T06:28:34.629Z,43.35
2022-10-20T06:33:57.657Z,53.48
2022-10-20T06:39:22.144Z,56.12
2022-10-20T06:44:44.053Z,59.16
2022-10-20T06:50:06.660Z,49.11
2022-10-20T06:55:28.687Z,36.64
2022-10-20T07:01:08.314Z,31.97
2022-10-20T07:06:35.350Z,30.91
2022-10-20T07:11:57.224Z,33.42
2022-10-20T07:17:19.191Z,32.78
2022-10-20T07:22:41.122Z,29.80
2022-10-20T07:28:03.022Z,29.33
2022-10-20T07:33:25.100Z,28.70
2022-10-20T07:38:48.165Z,27.58
2022-10-20T07:44:10.081Z,28.07
2022-10-20T07:49:44.086Z,26.61
2022-10-20T07:55:17.679Z,26.67
2022-10-20T08:00:46.009Z,24.94
2022-10-20T08:06:07.920Z,32.74
2022-10-20T08:11:29.734Z,34.71
2022-10-20T08:16:53.740Z,37.90
2022-10-20T08:22:16.040Z,40.71
2022-10-20T08:27:37.875Z,38.40
2022-10-20T08:32:59.875Z,37.02
2022-10-20T08:38:21.681Z,40.04
2022-10-20T08:43:43.778Z,39.58
2022-10-20T08:49:12.318Z,42.13
2022-10-20T08:54:34.588Z,44.65
2022-10-20T09:00:09.083Z,47.60
2022-10-20T09:05:34.658Z,50.95
2022-10-20T09:10:56.730Z,50.58
2022-10-20T09:16:41.759Z,48.71
2022-10-20T09:22:13.738Z,49.01
2022-10-20T09:27:38.245Z,50.60
2022-10-20T09:33:01.037Z,35.45
2022-10-20T09:38:27.792Z,32.63
2022-10-20T09:43:57.129Z,37.52
2022-10-20T09:49:33.379Z,39.37
2022-10-20T09:55:00.473Z,33.77
2022-10-20T10:00:43.323Z,35.05
2022-10-20T10:06:20.468Z,42.61
2022-10-20T10:11:42.351Z,38.02
2022-10-20T10:17:04.358Z,43.18
2022-10-20T10:22:26.730Z,43.73
2022-10-20T10:28:00.775Z,45.68
2022-10-20T10:33:28.324Z,45.28
2022-10-20T10:38:50.154Z,45.92
2022-10-20T10:44:22.915Z,46.01
2022-10-20T10:50:13.176Z,46.00
2022-10-20T10:55:49.313Z,46.94
2022-10-20T11:02:00.235Z,49.76
2022-10-20T11:07:49.703Z,48.79
2022-10-20T11:13:31.185Z,48.29
2022-10-20T11:19:33.242Z,48.26
2022-10-20T11:25:04.079Z,48.19
2022-10-20T11:30:26.499Z,47.25
2022-10-20T11:35:54.410Z,47.40
2022-10-20T11:41:20.471Z,47.60
2022-10-20T11:46:47.610Z,47.77
2022-10-20T11:52:45.613Z,47.11
2022-10-20T11:58:19.632Z,47.96
2022-10-20T12:04:02.298Z,49.24
2022-10-20T12:09:45.384Z,49.08
2022-10-20T12:15:24.717Z,48.59
2022-10-20T12:20:52.518Z,47.49
2022-10-20T12:27:01.682Z,46.59
2022-10-20T12:32:29.539Z,47.30
2022-10-20T12:37:57.095Z,47.42
2022-10-20T12:43:28.795Z,47.62
2022-10-20T12:48:54.259Z,47.31
2022-10-20T12:54:38.167Z,48.30
2022-10-20T13:00:00.047Z,48.46
2022-10-20T13:05:44.759Z,48.51
2022-10-20T13:11:37.423Z,48.53
2022-10-20T13:17:24.063Z,48.71
2022-10-20T13:22:49.765Z,49.96
2022-10-20T13:28:16.169Z,49.68
2022-10-20T13:34:03.244Z,49.70
2022-10-20T13:39:48.085Z,51.99
2022-10-20T13:45:21.896Z,53.43
2022-10-20T13:50:56.756Z,52.60
2022-10-20T13:56:34.873Z,52.93
2022-10-20T14:02:21.705Z,56.24
2022-10-20T14:07:44.504Z,54.44
2022-10-20T14:13:14.547Z,54.22
2022-10-20T14:18:36.856Z,55.00
2022-10-20T14:24:03.010Z,56.39
2022-10-20T14:29:28.069Z,57.39
2022-10-20T14:35:04.365Z,58.96
2022-10-20T14:40:32.884Z,60.13
2022-10-20T14:45:57.933Z,60.19
2022-10-20T14:51:41.224Z,60.36
2022-10-20T14:57:25.626Z,61.00
2022-10-20T15:02:48.327Z,62.13
2022-10-20T15:08:30.435Z,63.37
2022-10-20T15:13:55.172Z,62.24
2022-10-20T15:19:28.724Z,62.29
2022-10-20T15:24:50.592Z,63.97
2022-10-20T15:30:21.639Z,64.77
2022-10-20T15:35:43.486Z,64.26
2022-10-20T15:41:05.705Z,64.76
2022-10-20T15:46:27.580Z,65.29
2022-10-20T15:51:49.856Z,66.40
2022-10-20T15:57:11.755Z,66.43
2022-10-20T16:02:33.607Z,66.70
2022-10-20T16:07:55.750Z,66.93
2022-10-20T16:13:17.653Z,67.47
2022-10-20T16:18:39.777Z,66.72
2022-10-20T16:24:01.647Z,67.15
2022-10-20T16:29:23.464Z,67.11
2022-10-20T16:34:45.371Z,66.63
2022-10-20T16:40:07.777Z,66.62
2022-10-20T16:45:29.649Z,66.76
2022-10-20T16:50:51.496Z,66.57
2022-10-20T16:56:16.649Z,67.13
2022-10-20T17:01:41.799Z,67.90
2022-10-20T17:07:03.806Z,68.20
2022-10-20T17:12:25.762Z,67.91
2022-10-20T17:17:47.597Z,68.67
2022-10-20T17:23:09.414Z,68.32
2022-10-20T17:28:32.842Z,68.10
2022-10-20T17:33:55.315Z,68.56
2022-10-20T17:39:17.149Z,68.81
2022-10-20T17:44:39.054Z,70.08
2022-10-20T17:50:00.952Z,70.75
2022-10-20T17:55:22.804Z,71.44
2022-10-20T18:00:55.901Z,71.76
2022-10-20T18:06:21.953Z,71.99
2022-10-20T18:11:47.993Z,72.86
2022-10-20T18:17:09.824Z,73.75
2022-10-20T18:22:31.861Z,73.67
2022-10-20T18:27:53.803Z,74.17
2022-10-20T18:33:15.617Z,74.42
2022-10-20T18:38:39.505Z,74.92
2022-10-20T18:44:02.021Z,77.12
2022-10-20T18:49:24.148Z,77.36
2022-10-20T18:54:46.008Z,78.35
2022-10-20T19:00:09.074Z,79.01
2022-10-20T19:05:30.945Z,80.38
2022-10-20T19:10:53.136Z,82.26
2022-10-20T19:16:17.879Z,81.69
2022-10-20T19:21:39.933Z,82.59
2022-10-20T19:27:25.086Z,83.88
2022-10-20T19:32:44.209Z,84.28
2022-10-20T19:38:06.366Z,85.22
2022-10-20T19:43:28.244Z,85.88
2022-10-20T19:48:50.762Z,87.01
2022-10-20T19:54:12.973Z,88.49
2022-10-20T19:59:34.826Z,88.98
2022-10-20T20:04:56.730Z,90.03
2022-10-20T20:10:18.631Z,89.76
2022-10-20T20:15:40.445Z,90.95
2022-10-20T20:21:05.225Z,90.59
2022-10-20T20:26:29.794Z,91.36
2022-10-20T20:31:51.739Z,93.25
2022-10-20T20:37:13.599Z,92.36
2022-10-20T20:42:35.539Z,93.09
2022-10-20T20:47:58.175Z,93.96
2022-10-20T20:53:20.294Z,93.35
2022-10-20T20:58:43.113Z,93.81
2022-10-20T21:04:06.291Z,94.29
2022-10-20T21:09:28.249Z,96.67
2022-10-20T21:14:50.127Z,96.18
2022-10-20T21:20:12.255Z,94.66
2022-10-20T21:25:34.094Z,95.69
2022-10-20T21:30:58.727Z,97.23
2022-10-20T21:36:24.174Z,96.92
2022-10-20T21:41:46.161Z,97.82
2022-10-20T21:47:08.000Z,97.50
2022-10-20T21:52:29.809Z,97.80
2022-10-20T21:57:51.603Z,98.34
2022-10-20T22:03:13.501Z,98.36
2022-10-20T22:08:37.340Z,100.00
2022-10-20T22:13:59.592Z,100.00
2022-10-20T22:19:23.188Z,100.00
2022-10-20T22:24:45.026Z,100.00
2022-10-20T22:30:07.649Z,100.00
2022-10-20T22:35:29.537Z,100.00
2022-10-20T22:40:51.374Z,100.00
2022-10-20T22:46:13.417Z,100.00
2022-10-20T22:51:35.247Z,100.00
2022-10-20T22:56:57.084Z,100.00
2022-10-20T23:02:18.915Z,100.00
2022-10-20T23:07:41.068Z,100.00
2022-10-20T23:13:03.140Z,100.00
2022-10-20T23:18:24.974Z,100.00
2022-10-20T23:23:46.876Z,100.00
2022-10-20T23:29:09.008Z,100.00
2022-10-20T23:34:31.204Z,100.00
2022-10-20T23:39:53.095Z,100.00
2022-10-20T23:45:15.004Z,100.00
2022-10-20T23:50:36.809Z,100.00
2022-10-20T23:55:58.693Z,100.00
